Time;durP1;ratioP1;P1;durP2;ratioP2;P2;SDS_P1;SDS_P2;PMS_P1;PMS_P2;Temp;Humidity;BMP_temperature;BMP_pressure;BME280_temperature;BME280_humidity;BME280_pressure;Samples;Min_cycle;Max_cycle;Signal;HPM_P1;HPM_P2
2022/03/11 00:01:50;;;;;;;;;;;9.00;97.30;;;;;;4992828;28;20313;-81
2022/03/11 00:04:16;;;;;;;;;;;9.00;97.50;;;;;;4992629;28;19909;-80
2022/03/11 00:06:42;;;;;;;;;;;9.00;97.40;;;;;;4990728;28;20000;-83
2022/03/11 00:09:08;;;;;;;;;;;9.00;97.40;;;;;;4992242;28;20064;-83
2022/03/11 00:11:33;;;;;;;;;;;9.00;97.50;;;;;;4992801;28;19924;-84
2022/03/11 00:14:00;;;;;;;;;;;9.00;97.50;;;;;;4992555;28;19905;-83
2022/03/11 00:16:27;;;;;;;;;;;9.00;97.50;;;;;;4992445;28;20346;-81
2022/03/11 00:18:53;;;;;;;;;;;9.00;97.60;;;;;;4992460;28;19952;-83
2022/03/11 00:21:19;;;;;;;;;;;9.00;97.50;;;;;;4992691;28;19909;-83
2022/03/11 00:23:45;;;;;;;;;;;9.00;97.70;;;;;;4992681;28;19906;-82
2022/03/11 00:26:11;;;;;;;;;;;9.00;97.90;;;;;;4992732;28;19994;-83
2022/03/11 00:28:37;;;;;;;;;;;9.00;97.90;;;;;;4991371;28;19913;-82
2022/03/11 00:31:04;;;;;;;;;;;9.00;98.00;;;;;;4992435;28;20254;-83
2022/03/11 00:33:30;;;;;;;;;;;9.00;98.00;;;;;;4990859;28;19912;-83
2022/03/11 00:35:56;;;;;;;;;;;8.90;98.10;;;;;;4992441;28;19986;-83
2022/03/11 00:38:22;;;;;;;;;;;8.90;98.20;;;;;;4990805;28;19945;-83
2022/03/11 00:40:48;;;;;;;;;;;8.90;98.20;;;;;;4991464;28;19968;-83
2022/03/11 00:43:14;;;;;;;;;;;8.80;98.40;;;;;;4992750;28;19932;-81
2022/03/11 00:45:40;;;;;;;;;;;8.80;98.40;;;;;;4992204;28;19906;-83
2022/03/11 00:48:05;;;;;;;;;;;8.80;98.40;;;;;;4992226;28;19972;-83
2022/03/11 00:50:31;;;;;;;;;;;8.70;98.60;;;;;;4992418;28;19956;-82
2022/03/11 00:52:57;;;;;;;;;;;8.70;98.80;;;;;;4990891;28;19913;-83
2022/03/11 00:55:23;;;;;;;;;;;8.70;98.90;;;;;;4992377;28;19914;-83
2022/03/11 00:57:49;;;;;;;;;;;8.80;98.80;;;;;;4994130;28;19905;-82
2022/03/11 01:00:15;;;;;;;;;;;8.80;98.90;;;;;;4996090;28;19964;-83
2022/03/11 01:02:41;;;;;;;;;;;8.80;98.80;;;;;;4996301;28;19913;-83
2022/03/11 01:05:07;;;;;;;;;;;8.80;98.90;;;;;;4996349;28;19906;-82
2022/03/11 01:07:34;;;;;;;;;;;8.90;98.80;;;;;;4995797;28;19906;-81
2022/03/11 01:10:00;;;;;;;;;;;8.80;98.90;;;;;;4995266;28;19917;-81
2022/03/11 01:12:26;;;;;;;;;;;8.80;98.90;;;;;;4995604;28;20056;-80
2022/03/11 01:14:52;;;;;;;;;;;8.90;98.90;;;;;;4995532;28;19910;-81
2022/03/11 01:17:18;;;;;;;;;;;8.90;99.00;;;;;;4995922;28;20395;-81
2022/03/11 01:19:44;;;;;;;;;;;8.80;99.30;;;;;;4995569;28;20005;-81
2022/03/11 01:22:09;;;;;;;;;;;8.80;99.00;;;;;;4995262;28;19906;-81
2022/03/11 01:24:35;;;;;;;;;;;8.80;99.00;;;;;;4994271;28;19924;-81
2022/03/11 01:27:01;;;;;;;;;;;8.80;99.20;;;;;;4995425;28;19905;-81
2022/03/11 01:29:27;;;;;;;;;;;8.80;99.40;;;;;;4995634;28;20451;-82
2022/03/11 01:31:53;;;;;;;;;;;8.90;99.40;;;;;;4993713;28;20005;-81
2022/03/11 01:34:19;;;;;;;;;;;8.90;99.40;;;;;;4995487;28;19948;-81
2022/03/11 01:36:45;;;;;;;;;;;9.00;99.40;;;;;;4995533;28;19912;-83
2022/03/11 01:39:11;;;;;;;;;;;9.00;99.40;;;;;;4994177;28;19905;-83
2022/03/11 01:41:37;;;;;;;;;;;9.00;99.60;;;;;;4995486;28;19989;-83
2022/03/11 01:44:04;;;;;;;;;;;9.00;99.70;;;;;;4995413;28;20357;-81
2022/03/11 01:46:30;;;;;;;;;;;9.10;99.60;;;;;;4995275;28;19905;-83
2022/03/11 01:48:57;;;;;;;;;;;9.10;99.60;;;;;;4995148;28;19953;-81
2022/03/11 01:51:24;;;;;;;;;;;9.10;99.60;;;;;;4994608;28;19905;-83
2022/03/11 01:53:50;;;;;;;;;;;9.10;99.70;;;;;;4995196;28;19905;-81
2022/03/11 01:56:16;;;;;;;;;;;9.00;99.90;;;;;;4994736;28;19928;-81
2022/03/11 01:58:42;;;;;;;;;;;9.00;99.90;;;;;;4994512;28;20005;-81
2022/03/11 02:01:08;;;;;;;;;;;8.90;99.90;;;;;;4994739;28;19945;-81
2022/03/11 02:03:35;;;;;;;;;;;8.90;99.90;;;;;;4994518;28;20047;-81
2022/03/11 02:06:04;;;;;;;;;;;8.90;99.90;;;;;;4994836;28;19905;-83
2022/03/11 02:08:30;;;;;;;;;;;8.90;99.90;;;;;;4992930;28;20380;-76
2022/03/11 02:10:58;;;;;;;;;;;8.90;99.90;;;;;;4994204;28;19929;-81
2022/03/11 02:13:24;;;;;;;;;;;8.90;99.90;;;;;;4994513;28;19976;-79
2022/03/11 02:15:50;;;;;;;;;;;8.90;99.90;;;;;;4994219;28;20005;-81
2022/03/11 02:18:17;;;;;;;;;;;8.90;99.90;;;;;;4994545;28;19905;-80
2022/03/11 02:20:43;;;;;;;;;;;8.90;99.90;;;;;;4994001;28;19906;-81
2022/03/11 02:23:11;;;;;;;;;;;9.00;99.90;;;;;;4992603;28;20293;-81
2022/03/11 02:25:39;;;;;;;;;;;9.00;99.90;;;;;;4994186;28;19980;-81
2022/03/11 02:28:06;;;;;;;;;;;8.90;99.90;;;;;;4994390;28;19925;-80
2022/03/11 02:30:31;;;;;;;;;;;9.00;99.90;;;;;;4992498;28;20341;-81
2022/03/11 02:32:57;;;;;;;;;;;9.00;99.90;;;;;;4994081;28;19906;-81
2022/03/11 02:35:23;;;;;;;;;;;9.00;99.90;;;;;;4992710;28;19960;-83
2022/03/11 02:37:49;;;;;;;;;;;9.00;99.90;;;;;;4994359;28;20277;-81
2022/03/11 02:40:15;;;;;;;;;;;8.90;99.90;;;;;;4994170;28;19950;-81
2022/03/11 02:42:40;;;;;;;;;;;8.90;99.90;;;;;;4993778;28;19950;-81
2022/03/11 02:45:07;;;;;;;;;;;8.90;99.90;;;;;;4993805;28;19906;-80
2022/03/11 02:47:33;;;;;;;;;;;8.90;99.90;;;;;;4993928;28;20025;-81
2022/03/11 02:49:58;;;;;;;;;;;8.90;99.90;;;;;;4992499;28;20262;-83
2022/03/11 02:52:29;;;;;;;;;;;8.80;99.90;;;;;;4993866;28;20007;-80
2022/03/11 02:54:55;;;;;;;;;;;8.80;99.90;;;;;;4994165;28;20012;-81
2022/03/11 02:57:21;;;;;;;;;;;8.80;99.90;;;;;;4993707;28;19948;-81
2022/03/11 02:59:47;;;;;;;;;;;8.80;99.90;;;;;;4993675;28;19906;-80
2022/03/11 03:02:13;;;;;;;;;;;8.70;99.90;;;;;;4993614;28;19906;-81
2022/03/11 03:04:39;;;;;;;;;;;8.70;99.90;;;;;;4993739;28;20310;-81
2022/03/11 03:07:05;;;;;;;;;;;8.60;99.90;;;;;;4993249;28;19910;-79
2022/03/11 03:09:31;;;;;;;;;;;8.70;99.90;;;;;;4993056;28;19988;-81
2022/03/11 03:11:56;;;;;;;;;;;8.60;99.90;;;;;;4993527;28;19913;-81
2022/03/11 03:14:22;;;;;;;;;;;8.60;99.90;;;;;;4993270;28;19965;-81
2022/03/11 03:16:48;;;;;;;;;;;8.50;99.90;;;;;;4993134;28;19925;-81
2022/03/11 03:19:14;;;;;;;;;;;8.50;99.90;;;;;;4992644;28;19913;-80
2022/03/11 03:21:40;;;;;;;;;;;8.50;99.90;;;;;;4991821;28;20024;-81
2022/03/11 03:24:06;;;;;;;;;;;8.40;99.90;;;;;;4993541;28;20353;-83
2022/03/11 03:26:32;;;;;;;;;;;8.40;99.90;;;;;;4993455;28;20000;-84
2022/03/11 03:28:58;;;;;;;;;;;8.40;99.90;;;;;;4993433;28;20007;-83
2022/03/11 03:31:23;;;;;;;;;;;8.40;99.90;;;;;;4993376;28;20250;-83
2022/03/11 03:33:50;;;;;;;;;;;8.30;99.90;;;;;;4993304;28;20316;-80
2022/03/11 03:36:16;;;;;;;;;;;8.30;99.90;;;;;;4992915;28;19914;-83
2022/03/11 03:38:41;;;;;;;;;;;8.30;99.90;;;;;;4993435;28;19905;-81
2022/03/11 03:41:08;;;;;;;;;;;8.40;99.90;;;;;;4992795;28;19912;-83
2022/03/11 03:43:34;;;;;;;;;;;8.40;99.90;;;;;;4992944;28;19910;-83
2022/03/11 03:46:00;;;;;;;;;;;8.50;99.90;;;;;;4993013;28;20298;-83
2022/03/11 03:48:26;;;;;;;;;;;8.50;99.90;;;;;;4992850;28;20326;-81
2022/03/11 03:50:51;;;;;;;;;;;8.40;99.90;;;;;;4992411;28;19968;-81
2022/03/11 03:53:19;;;;;;;;;;;8.40;99.90;;;;;;4992852;28;20378;-79
2022/03/11 03:58:54;;;;;;;;;;;8.40;99.90;;;;;;4952041;29;19906;-81
2022/03/11 04:01:23;;;;;;;;;;;8.30;99.90;;;;;;4952102;29;19913;-80
2022/03/11 04:03:48;;;;;;;;;;;8.40;99.90;;;;;;4952003;29;19906;-81
2022/03/11 04:06:14;;;;;;;;;;;8.30;99.90;;;;;;4951640;29;20089;-81
2022/03/11 04:08:40;;;;;;;;;;;8.30;99.90;;;;;;4935529;29;19976;-81
2022/03/11 04:11:06;;;;;;;;;;;8.30;99.90;;;;;;4951014;29;19944;-80
2022/03/11 04:13:31;;;;;;;;;;;8.40;99.90;;;;;;4951933;29;19954;-81
2022/03/11 04:15:58;;;;;;;;;;;8.50;99.90;;;;;;4951745;29;20304;-81
2022/03/11 04:18:24;;;;;;;;;;;8.60;99.90;;;;;;4952332;29;19913;-81
2022/03/11 04:20:50;;;;;;;;;;;8.60;99.90;;;;;;4951990;29;19907;-81
2022/03/11 04:23:16;;;;;;;;;;;8.50;99.90;;;;;;4952395;29;19906;-81
2022/03/11 04:25:41;;;;;;;;;;;8.50;99.90;;;;;;4952692;29;20283;-82
2022/03/11 04:28:07;;;;;;;;;;;8.50;99.90;;;;;;4952642;29;20382;-81
2022/03/11 04:30:33;;;;;;;;;;;8.50;99.90;;;;;;4952364;28;19994;-81
2022/03/11 04:33:01;;;;;;;;;;;8.50;99.90;;;;;;4952793;29;19913;-81
2022/03/11 04:35:27;;;;;;;;;;;8.50;99.90;;;;;;4957053;28;19914;-81
2022/03/11 04:37:53;;;;;;;;;;;8.50;99.90;;;;;;4991925;28;19906;-81
2022/03/11 04:40:19;;;;;;;;;;;8.50;99.90;;;;;;4993347;28;19905;-80
2022/03/11 04:42:44;;;;;;;;;;;8.50;99.90;;;;;;4993345;28;19956;-80
2022/03/11 04:45:10;;;;;;;;;;;8.50;99.90;;;;;;4991796;28;19905;-80
2022/03/11 04:47:36;;;;;;;;;;;8.40;99.90;;;;;;4993232;28;19940;-80
2022/03/11 04:50:02;;;;;;;;;;;8.40;99.90;;;;;;4993139;28;19913;-80
2022/03/11 04:52:28;;;;;;;;;;;8.40;99.90;;;;;;4992767;28;19960;-80
2022/03/11 04:54:54;;;;;;;;;;;8.40;99.90;;;;;;4993174;28;19921;-80
2022/03/11 04:57:20;;;;;;;;;;;8.30;99.90;;;;;;4992941;28;19912;-80
2022/03/11 04:59:46;;;;;;;;;;;8.30;99.90;;;;;;4993141;28;19914;-80
2022/03/11 05:02:11;;;;;;;;;;;8.30;99.90;;;;;;4992921;28;19906;-80
2022/03/11 05:04:38;;;;;;;;;;;8.30;99.90;;;;;;4992860;28;19906;-75
2022/03/11 05:07:06;;;;;;;;;;;8.30;99.90;;;;;;4992723;28;20278;-78
2022/03/11 05:09:31;;;;;;;;;;;8.20;99.90;;;;;;4986411;28;19921;-79
2022/03/11 05:12:00;;;;;;;;;;;8.20;99.90;;;;;;4983132;28;20282;-75
2022/03/11 05:14:26;;;;;;;;;;;8.20;99.90;;;;;;4981392;28;19913;-80
2022/03/11 05:16:53;;;;;;;;;;;8.20;99.90;;;;;;4992771;28;20388;-80
2022/03/11 05:19:19;;;;;;;;;;;8.20;99.90;;;;;;4992114;28;19906;-79
2022/03/11 05:21:44;;;;;;;;;;;8.20;99.90;;;;;;4993196;28;20478;-78
2022/03/11 05:24:10;;;;;;;;;;;8.30;99.90;;;;;;4993140;28;19913;-79
2022/03/11 05:26:36;;;;;;;;;;;8.30;99.90;;;;;;4991350;28;19914;-80
2022/03/11 05:29:02;;;;;;;;;;;8.30;99.90;;;;;;4992562;28;19957;-79
2022/03/11 05:31:28;;;;;;;;;;;8.30;99.90;;;;;;4992506;28;20285;-80
2022/03/11 05:33:54;;;;;;;;;;;8.20;99.90;;;;;;4991764;28;20398;-79
2022/03/11 05:36:21;;;;;;;;;;;8.10;99.90;;;;;;4993282;28;19921;-79
2022/03/11 05:38:47;;;;;;;;;;;8.10;99.90;;;;;;4993141;28;19937;-80
2022/03/11 05:41:12;;;;;;;;;;;8.10;99.90;;;;;;4991719;28;19913;-79
2022/03/11 05:43:39;;;;;;;;;;;8.10;99.90;;;;;;4994905;28;19913;-79
2022/03/11 05:46:05;;;;;;;;;;;8.00;99.90;;;;;;4995438;28;20331;-79
2022/03/11 05:48:31;;;;;;;;;;;8.00;99.90;;;;;;4994670;28;19905;-80
2022/03/11 05:50:56;;;;;;;;;;;8.00;99.90;;;;;;4995065;28;19906;-80
2022/03/11 05:53:23;;;;;;;;;;;8.00;99.90;;;;;;4995087;28;19932;-81
2022/03/11 05:55:49;;;;;;;;;;;8.10;99.90;;;;;;4996038;28;20354;-80
2022/03/11 05:58:15;;;;;;;;;;;8.30;99.90;;;;;;4996545;28;19917;-80
2022/03/11 06:00:41;;;;;;;;;;;8.90;99.90;;;;;;4996495;28;19906;-80
2022/03/11 06:03:07;;;;;;;;;;;9.50;99.90;;;;;;4996823;28;19996;-80
2022/03/11 06:05:33;;;;;;;;;;;10.10;99.90;;;;;;4995228;28;19913;-79
2022/03/11 06:07:59;;;;;;;;;;;10.80;99.90;;;;;;4996181;28;20274;-81
2022/03/11 06:10:25;;;;;;;;;;;11.30;99.40;;;;;;4995950;28;20290;-80
2022/03/11 06:12:51;;;;;;;;;;;12.00;97.80;;;;;;4996660;28;19906;-81
2022/03/11 06:15:17;;;;;;;;;;;12.50;96.60;;;;;;4994788;28;19914;-81
2022/03/11 06:17:43;;;;;;;;;;;12.60;96.70;;;;;;4996672;28;20289;-80
2022/03/11 06:20:11;;;;;;;;;;;12.70;96.30;;;;;;4996486;28;19906;-79
2022/03/11 06:22:37;;;;;;;;;;;13.10;94.90;;;;;;4996530;28;19905;-81
2022/03/11 06:25:03;;;;;;;;;;;13.30;94.60;;;;;;4996332;28;19905;-82
2022/03/11 06:27:29;;;;;;;;;;;13.60;94.40;;;;;;4996460;28;19993;-77
2022/03/11 06:29:55;;;;;;;;;;;13.80;94.40;;;;;;4996829;28;19956;-82
2022/03/11 06:32:21;;;;;;;;;;;14.20;93.30;;;;;;4995697;28;19945;-83
2022/03/11 06:34:48;;;;;;;;;;;14.60;92.30;;;;;;4995593;28;20000;-81
2022/03/11 06:37:15;;;;;;;;;;;14.80;91.70;;;;;;4995466;28;19909;-81
2022/03/11 06:39:41;;;;;;;;;;;14.90;92.10;;;;;;4995878;28;19951;-72
2022/03/11 06:42:07;;;;;;;;;;;15.30;91.20;;;;;;4996447;28;19913;-74
2022/03/11 06:44:33;;;;;;;;;;;15.70;90.20;;;;;;4995612;28;20017;-79
2022/03/11 06:46:59;;;;;;;;;;;16.30;89.00;;;;;;4994769;28;19949;-79
2022/03/11 06:49:24;;;;;;;;;;;15.70;88.60;;;;;;4995014;28;20000;-82
2022/03/11 06:51:50;;;;;;;;;;;15.90;89.00;;;;;;4994339;28;20345;-79
2022/03/11 06:54:16;;;;;;;;;;;16.00;88.60;;;;;;4993218;28;19906;-79
2022/03/11 06:56:42;;;;;;;;;;;16.10;88.00;;;;;;4993918;28;19914;-79
2022/03/11 06:59:08;;;;;;;;;;;16.30;86.80;;;;;;4994081;28;20042;-78
2022/03/11 07:01:34;;;;;;;;;;;15.80;88.00;;;;;;4992329;28;19906;-79
